首页
METAR-TAF:

METAR-TAF

机场 :

比亚里茨, 法国

纬度: 43-28N, 经度: 001-32W, 海拔: 75米

当前天气观测

该预报发布于30分钟前的15:00 UTC
风速7节,风向南转南东,在东转东南西南之间变化
温度 35°C
湿度 22%
气压 1007 hPa
能见度10公里或以上
1500米以下无云,无积雨云

METAR: LFBZ 181500Z AUTO 16007KT 120V230 CAVOK 35/10 Q1007 BECMG BKN006

时间: 17:30 (15:30 UTC)

预报

该预报发布于4小时和30分钟前的11:00 UTC
预报有效从18日的 12点(UTC)到 19日的 12点(UTC)
风速6节,风向
能见度10公里或以上
1500米以下无云,无积雨云
成为
从 18日的 16点(UTC)到 18日的 18点(UTC)
风速10节,风向西
多云层高于600英尺
几率 40% :
短暂存在
从 18日的 17点(UTC)到 18日的 22点(UTC)
风速20节,风向西,有时为35节阵风
成为
从 19日的 01点(UTC)到 19日的 03点(UTC)
风速3节,风向多变
散云层高于2000英尺
成为
从 19日的 09点(UTC)到 19日的 11点(UTC)
风速10节,风向

TAF: LFBZ 181100Z 1812/1912 09006KT CAVOK BECMG 1816/1818 28010KT BKN006 PROB40 TEMPO 1817/1822 28020G35KT BECMG 1901/1903 VRB03KT SCT020 BECMG 1909/1911 36010KT

超过4000个机场的气象观测和天气预报(METAR&TAF报告)。

可查询的气象台以黄色和红色小点在地图上表示。

将鼠标移到小点上方,可查看气象台名称。

然后点击查看天气观测和预报。

如需切换地图:点击带黑十字的绿色按钮放大地图;点击带横线的绿色按钮缩小地图;或者点击绿色箭头查看邻近地区的地图。


METAR-TAF: